Tropical Cyclones
[Index]
Main Index Home Page Stock Weather Photos Extreme Storms Discussion Storm News and Storm Chasing Reports Tropical Cyclones / Hurricanes / Typhoons Weather Data and Links Wild Fires / Bushfires Weather Observation Techniques Weather Picture Catalogue Tornado Pictures and Reports Stock Video Footage and DVDs for sale
Season 1960-1961 Tropical Cyclone 196061_09 Track Map
Season 1960-1961 Summaries: [BoM-AU] [JTWC-AU] [JTWC-SIO] [JTWC-SPAC] [JTWC-SH]
<<- Previous TC | BoM 1960-1961 Season | Next TC ->>

click for intensity scale information  Lat/long Grid: Show Hide

 Date Labels: Show Hide

Bureau of Meteorology Tropical Cyclone Data

Name: 196061_09
Number: 336 / 196061_09

12 Feb 1961 01:00 UTC to 17 Feb 1961 01:00 UTC

    date/time    lat    long    hPa   cat  kts
1961-02-12 01    9.0    99.0    995    1                
1961-02-12 04    9.2    98.8    995    1                
1961-02-12 07    9.5    98.5    994    1                
1961-02-12 10    9.7    98.2    994    1                
1961-02-12 16   10.2    97.7    993    1                
1961-02-12 19   10.5    97.5    993    1                
1961-02-12 22   10.8    97.2    992    1                
1961-02-13 01   11.0    97.0    992    1                
1961-02-13 04   11.3    97.0    992    1                
1961-02-13 07   11.6    97.0    992    1                
1961-02-13 10   12.0    97.0    991    1                
1961-02-13 19   13.2    97.0    991    1                
1961-02-13 22   13.6    97.0    991    1                
1961-02-14 01   14.0    97.0    990    1                
1961-02-14 04   14.2    97.0    990    1                
1961-02-14 07   14.5    97.0    990    1                
1961-02-14 10   14.7    97.0    990    1                
1961-02-14 16   14.8    97.0    990    1                
1961-02-14 19   14.8    97.0    990    1                
1961-02-14 22   14.9    97.0    990    1                
1961-02-15 01   16.0    97.0    990    1                
1961-02-15 04   16.2    97.1    990    1                
1961-02-15 07   16.5    97.3    991    1                
1961-02-15 10   16.7    97.4    991    1                
1961-02-15 16   17.2    97.5    992    1                
1961-02-15 22   17.8    97.8    994    1                
1961-02-16 01   18.0    98.0    995    1                
1961-02-16 04   18.1    98.1    996                     
1961-02-16 07   18.3    98.3    996                     
1961-02-16 10   18.4    98.4    997                     
1961-02-16 19   18.8    98.8    998                     
1961-02-16 22   18.9    98.9    999                     
1961-02-17 01   19.0    99.0   1000                     
Winds are 10-min average.

Tropical cyclone tracks developed by Michael Bath using data from the Bureau of Meteorology and Google Maps.


[Australian Severe Weather index] [Copyright Notice] [Email Contacts] [Search This Site] [Privacy Policy]
Document: tropical_cyclone_196061_09.htm Updated: 30 May 2013